Grapevine, CA Past Weather

Last 30 Days

 
High: 47ºf @10:13 AM    Low: 43ºf @12:13 AM     Approx. Precipitation / Rain Total: in.
Time (PST)Temp. (ºf)Humidity (%)Dew Point (ºf)Barometer (inHG)Wind Speed (mph)Wind DirectionWind Gust (mph)1hr. Precip / Rain Total (in.)Snow Depth
10:13 AM4710047-13.03ssw20.86--
9:13 AM4610046-14.77s18.25--
8:13 AM4610046-5.21s12.17--
7:13 AM4510045-6.95s13.9--
6:13 AM4410044-8.69sse13.03--
5:13 AM4410044-7.82sse14.77--
4:13 AM4410044-12.17s20.86--
3:13 AM4410044-15.64sse19.99--
2:13 AM4410044-15.64sse22.59--
1:13 AM4310043-13.03sse26.07--
12:13 AM4310043-15.64sse21.72--
High: 44ºf @7:13 PM    Low: 39ºf @7:13 AM     Approx. Precipitation / Rain Total: in.
Time (PST)Temp. (ºf)Humidity (%)Dew Point (ºf)Barometer (inHG)Wind Speed (mph)Wind DirectionWind Gust (mph)1hr. Precip / Rain Total (in.)Snow Depth
11:13 PM4310043-14.77s22.59--
10:13 PM4310043-15.64s21.72--
9:13 PM4210042-19.12sse23.46--
8:13 PM4310043-15.64sse21.72--
7:13 PM4410044-13.03se20.86--
5:13 PM4310043-9.56se39.1--
4:13 PM4310043-27.81s47.79--
3:13 PM4410044-42.58s51.27--
1:13 PM4310043-38.23s49.53--
12:13 PM4310043-33.89sse46.92--
11:13 AM439942.74-39.1sse50.4--
10:13 AM4210042-41.71s54.75--
9:13 AM4110041-37.37s49.53--
8:13 AM4010040-31.28s42.58--
7:13 AM3910039-32.15s49.53--
6:13 AM3910039-36.5s47.79--
5:13 AM3910039-32.15s46.92--
4:13 AM4010040-37.37sse48.66--
2:13 AM4010040-31.28sse40.84--
12:13 AM4010040-27.81sse39.1--
High: 44ºf @2:13 PM    Low: 38ºf @2:13 AM     Approx. Precipitation / Rain Total: in.
Time (PST)Temp. (ºf)Humidity (%)Dew Point (ºf)Barometer (inHG)Wind Speed (mph)Wind DirectionWind Gust (mph)1hr. Precip / Rain Total (in.)Snow Depth
10:13 PM4110041-29.55sse38.23--
9:13 PM4010040-28.68sse38.23--
8:13 PM4010040-24.33s30.41--
7:13 PM4110041-23.46s31.28--
6:13 PM4110041-16.51s22.59--
5:13 PM4110041-15.64sse21.72--
4:13 PM4210042-14.77sse20.86--
3:13 PM4310043-14.77s22.59--
2:13 PM4410044-15.64sse24.33--
1:13 PM4310043-17.38sse24.33--
12:13 PM4210042-17.38sse25.2--
11:13 AM4210042-19.12sse24.33--
10:13 AM4210042-16.51sse20.86--
9:13 AM4010040-13.03sse18.25--
8:13 AM4010040-12.17se16.51--
6:13 AM419439.41---5.21--
5:13 AM4010040------
4:13 AM3810038------
3:13 AM3910039------
2:13 AM3810038---8.69--
1:13 AM3910039-8.69sse13.03--
12:13 AM3910039-6.08se8.69--
High: 43ºf @12:13 AM    Low: 36ºf @5:13 AM     Approx. Precipitation / Rain Total: in.
Time (PST)Temp. (ºf)Humidity (%)Dew Point (ºf)Barometer (inHG)Wind Speed (mph)Wind DirectionWind Gust (mph)1hr. Precip / Rain Total (in.)Snow Depth
11:13 PM4010040------
10:13 PM4010040------
9:13 PM4010040------
7:13 PM4010040------
6:13 PM4010040-0.87sse10.43--
5:13 PM4010040-5.21ssw20.86--
4:13 PM4110041-14.77s19.12--
3:13 PM4110041-14.77ssw19.99--
2:13 PM4110041-15.64s21.72--
12:13 PM4110041-17.38s29.55--
11:13 AM3910039-24.33s34.76--
10:13 AM3810038-33.02s41.71--
9:13 AM3710037-26.07sse31.28--
8:13 AM3710037-26.94s43.45--
5:13 AM3610036-39.97s48.66--
4:13 AM3610036-36.5s47.79--
3:13 AM3610036-33.89s46.92--
2:13 AM3810038-39.97sse51.27--
12:13 AM436732.8-37.37s47.79--
High: 45ºf @3:13 AM    Low: 40ºf @8:13 PM     Approx. Precipitation / Rain Total: in.
Time (PST)Temp. (ºf)Humidity (%)Dew Point (ºf)Barometer (inHG)Wind Speed (mph)Wind DirectionWind Gust (mph)1hr. Precip / Rain Total (in.)Snow Depth
10:13 PM416831.26-33.02sse38.23--
9:13 PM407031.02-26.94sse35.63--
8:13 PM406729.94-24.33sse32.15--
7:13 PM416329.38-22.59sse33.02--
6:13 PM416530.15-24.33sse34.76--
5:13 PM416128.6-26.07sse33.89--
4:13 PM415726.95-26.07sse45.19--
3:13 PM435427.51-28.68sse36.5--
2:13 PM425627.46-27.81sse35.63--
1:13 PM435427.51-25.2sse31.28--
12:13 PM435728.82-18.25sse25.2--
11:13 AM435829.25-18.25sse25.2--
10:13 AM425928.72-19.99sse26.07--
8:13 AM425928.72-13.03sse20.86--
7:13 AM425527.02-13.03sse17.38--
6:13 AM435628.39-9.56sse13.9--
5:13 AM435025.65-10.43sse14.77--
3:13 AM454424.41-9.56sse13.9--
2:13 AM454726-10.43s17.38--
1:13 AM425225.67-11.3s17.38--
12:13 AM425125.2-13.9s19.99--
High: 48ºf @12:13 PM    Low: 33ºf @12:13 AM     Approx. Precipitation / Rain Total: in.
Time (PST)Temp. (ºf)Humidity (%)Dew Point (ºf)Barometer (inHG)Wind Speed (mph)Wind DirectionWind Gust (mph)1hr. Precip / Rain Total (in.)Snow Depth
11:13 PM415726.95-15.64s21.72--
10:13 PM444322.96-14.77sse19.99--
9:13 PM454323.86-9.56sse13.03--
7:13 PM464123.63-8.69sse11.3--
6:13 PM445327.98-10.43se17.38--
5:13 PM426029.13-13.03sse19.99--
4:13 PM454826.5-15.64sse19.99--
3:13 PM474023.94-10.43sse20.86--
1:13 PM474426.23-13.03sse20.86--
12:13 PM484326.58-15.64sse23.46--
11:13 AM445227.52-18.25sse23.46--
10:13 AM434824.67-18.25sse22.59--
9:13 AM424823.75-15.64sse22.59--
8:13 AM405726.01-17.38sse23.46--
7:13 AM367127.52-16.51sse22.59--
6:13 AM358831.81-19.12sse25.2--
5:13 AM348931.11-19.12s28.68--
4:13 AM359132.64-25.2sse34.76--
3:13 AM349532.72-25.2sse33.02--
2:13 AM3410034-25.2sse34.76--
1:13 AM3410034-29.55sse36.5--
12:13 AM3310033-25.2sse32.15--
High: 33ºf @11:13 PM    Low: 29ºf @2:13 AM     Approx. Precipitation / Rain Total: in.
Time (PST)Temp. (ºf)Humidity (%)Dew Point (ºf)Barometer (inHG)Wind Speed (mph)Wind DirectionWind Gust (mph)1hr. Precip / Rain Total (in.)Snow Depth
11:13 PM3310033-26.07sse35.63--
10:13 PM3310033-28.68sse36.5--
9:13 PM3310033-27.81sse34.76--
8:13 PM3310033-13.03sse17.38--
6:13 PM3210032-10.43sse13.9--
5:13 PM3210032-10.43sse13.9--
4:13 PM3210032-9.56s12.17--
3:13 PM3210032-8.69sse12.17--
2:13 PM3210032-8.69s10.43--
1:13 PM3210032-7.82s9.56--
12:13 PM3110031------
11:13 AM3010030------
10:13 AM3010030------
9:13 AM3010030------
8:13 AM3010030------
7:13 AM3010030------
6:13 AM3010030------
5:13 AM3010030------
4:13 AM3010030------
3:13 AM3010030------
2:13 AM2910029------
1:13 AM3010030------
12:13 AM3010030------
High: 29ºf @11:13 PM    Low: 25ºf @3:13 AM     Approx. Precipitation / Rain Total: in.
Time (PST)Temp. (ºf)Humidity (%)Dew Point (ºf)Barometer (inHG)Wind Speed (mph)Wind DirectionWind Gust (mph)1hr. Precip / Rain Total (in.)Snow Depth
11:13 PM2910029------
10:13 PM2910029---12.17--
9:13 PM2810028-9.56s13.03--
8:13 PM2910029-11.3s16.51--
7:13 PM2910029-13.03s16.51--
6:13 PM2910029-12.17s19.12--
4:13 PM2910029-19.12sse28.68--
3:13 PM2910029-22.59sse33.02--
2:13 PM2910029-26.07s35.63--
1:13 PM2810028-15.64sse22.59--
12:13 PM2910029-19.12sse27.81--
11:13 AM2910029-20.86sse28.68--
10:13 AM2910029-19.12sse25.2--
8:13 AM2910029-16.51sse23.46--
7:13 AM2810028-13.9sse18.25--
6:13 AM2710027-10.43sse14.77--
5:13 AM2610026---7.82--
4:13 AM2710027-3.48sse6.95--
3:13 AM2510025-0.87se3.48--
2:13 AM2610026------
1:13 AM2710027---0.87--
12:13 AM2810028------
High: 31ºf @1:13 PM    Low: 27ºf @11:13 PM     Approx. Precipitation / Rain Total: in.
Time (PST)Temp. (ºf)Humidity (%)Dew Point (ºf)Barometer (inHG)Wind Speed (mph)Wind DirectionWind Gust (mph)1hr. Precip / Rain Total (in.)Snow Depth
11:13 PM2710027---1.74--
10:13 PM2710027---7.82--
9:13 PM2810028------
8:13 PM2810028---1.74--
7:13 PM2910029-0.87nnw0.87--
5:13 PM2910029-0.87wsw6.95--
3:13 PM3110031---8.69--
2:13 PM3110031---11.3--
1:13 PM3110031-4.34n8.69--
12:13 PM3110031-1.74nnw7.82--
11:13 AM3110031------
10:13 AM3010030------
12:13 AM2910029------
High: 33ºf @12:13 AM    Low: 28ºf @7:13 AM     Approx. Precipitation / Rain Total: in.
Time (PST)Temp. (ºf)Humidity (%)Dew Point (ºf)Barometer (inHG)Wind Speed (mph)Wind DirectionWind Gust (mph)1hr. Precip / Rain Total (in.)Snow Depth
11:13 PM2910029------
9:13 PM2910029------
8:13 PM2910029------
7:13 PM2810028------
6:13 PM2810028---10.43--
5:13 PM2810028-8.69s10.43--
4:13 PM2810028-6.95s13.03--
3:13 PM2910029-8.69s12.17--
2:13 PM2910029-9.56s12.17--
1:13 PM2910029-7.82s10.43--
12:13 PM2910029-7.82s12.17--
11:13 AM3010030-6.95sse13.9--
10:13 AM2910029-14.77s21.72--
9:13 AM2810028-17.38s21.72--
8:13 AM2810028-19.99sse30.41--
7:13 AM2810028-10.43sse19.99--
6:13 AM2910029-16.51sse21.72--
4:13 AM3010030-14.77s19.12--
3:13 AM2910029-11.3s15.64--
2:13 AM2810028-5.21s16.51--
1:13 AM289927.76-10.43sse14.77--
12:13 AM335819.86-1.74w13.9--
High: 43ºf @1:13 AM    Low: 29ºf @8:13 PM     Approx. Precipitation / Rain Total: in.
Time (PST)Temp. (ºf)Humidity (%)Dew Point (ºf)Barometer (inHG)Wind Speed (mph)Wind DirectionWind Gust (mph)1hr. Precip / Rain Total (in.)Snow Depth
11:13 PM307322.41---14.77--
10:13 PM317122.72-3.48ssw13.9--
9:13 PM298525.07---10.43--
8:13 PM2910029------
7:13 PM3010030------
6:13 PM3010030---6.08--
5:13 PM3110031------
4:13 PM3310033---1.74--
3:13 PM358731.53---4.34--
2:13 PM379836.49---6.95--
12:13 PM3610036------
11:13 AM3410034---6.08--
10:13 AM3510035-0.87nnw6.08--
9:13 AM3310033-4.34n8.69--
8:13 AM3310033-0.87nw6.08--
7:13 AM3110031------
6:13 AM3210032------
5:13 AM3210032-3.48se18.25--
4:13 AM329530.73-16.51ssw52.14--
3:13 AM346121.98-36.5ssw52.14--
2:13 AM385221.96-23.46sw46.06--
1:13 AM434925.16-24.33ssw39.97--
12:13 AM403615.23-12.17se33.89--
High: 45ºf @12:13 PM    Low: 30ºf @6:13 AM     Approx. Precipitation / Rain Total: in.
Time (PST)Temp. (ºf)Humidity (%)Dew Point (ºf)Barometer (inHG)Wind Speed (mph)Wind DirectionWind Gust (mph)1hr. Precip / Rain Total (in.)Snow Depth
11:13 PM414722.33-20.86s26.94--
10:13 PM413616.12-11.3sse20.86--
9:13 PM403413.92-12.17s19.99--
8:13 PM393312.36-11.3sse18.25--
6:13 PM393211.67---13.03--
5:13 PM393110.96-10.43s14.77--
4:13 PM403011.1-3.48sse13.9--
3:13 PM412911.21-11.3s16.51--
2:13 PM423315.01-6.95sse11.3--
12:13 PM453519.01---0.87--
11:13 AM423214.3-0.87s0.87--
10:13 AM432912.94------
9:13 AM403514.58------
8:13 AM364014.05---7.82--
7:13 AM324714.08---8.69--
6:13 AM305013.64-4.34n11.3--
5:13 AM315516.75-6.95n15.64--
4:13 AM315315.9-10.43n13.9--
3:13 AM315416.33-3.48n13.03--
2:13 AM315215.46-6.95n16.51--
1:13 AM325115.94-10.43n14.77--
12:13 AM335116.87-10.43n18.25--
High: 49ºf @9:13 AM    Low: 33ºf @11:13 PM     Approx. Precipitation / Rain Total: in.
Time (PST)Temp. (ºf)Humidity (%)Dew Point (ºf)Barometer (inHG)Wind Speed (mph)Wind DirectionWind Gust (mph)1hr. Precip / Rain Total (in.)Snow Depth
11:13 PM335116.87-11.3n16.51--
10:13 PM345419.12-10.43n22.59--
9:13 PM363812.88-6.95-13.9--
8:13 PM364717.75-6.08n12.17--
7:13 PM364617.25-6.95n12.17--
6:13 PM375020.11-6.08n13.9--
5:13 PM385523.29-10.43n16.51--
4:13 PM406127.65-6.08n12.17--
2:13 PM447436.25-6.95n13.03--
1:13 PM457336.87-6.08n17.38--
12:13 PM457437.22-6.08-13.9--
11:13 AM457537.56-7.82n17.38--
9:13 AM495332.62-2.61nw14.77--
8:13 AM454726-10.43n13.9--
7:13 AM408234.96-10.43n15.64--
6:13 AM396126.71-11.3n14.77--
5:13 AM416329.38-6.95n12.17--
4:13 AM425928.72-8.69-14.77--
3:13 AM426029.13-9.56n12.17--
1:13 AM465128.9------
12:13 AM435226.59-2.61n10.43--
High: 56ºf @1:13 PM    Low: 41ºf @7:13 PM     Approx. Precipitation / Rain Total: in.
Time (PST)Temp. (ºf)Humidity (%)Dew Point (ºf)Barometer (inHG)Wind Speed (mph)Wind DirectionWind Gust (mph)1hr. Precip / Rain Total (in.)Snow Depth
11:13 PM427233.64-0.87n9.56--
10:13 PM463217.81-7.82n9.56--
9:13 PM521911.04-0.87nnw7.82--
8:13 PM464425.32---0.87--
7:13 PM418436.54-7.82n12.17--
5:13 PM473017.19------
4:13 PM483521.67---3.48--
2:13 PM553628.54------
1:13 PM563125.8---14.77--
12:13 PM552923.34-11.3sse18.25--
11:13 AM533223.94-14.77sse20.86--
10:13 AM513625-15.64sse20.86--
9:13 AM494226.92-15.64sse20.86--
8:13 AM474526.77-13.9se18.25--
7:13 AM444926.08-13.9se18.25--
6:13 AM434925.16-13.03se16.51--
5:13 AM434925.16-11.3se14.77--
4:13 AM434824.67-13.03se17.38--
3:13 AM434925.16-12.17se16.51--
2:13 AM425024.72-13.9sse16.51--
1:13 AM434824.67-13.9se18.25--
12:13 AM434724.16-13.9se17.38--
High: 52ºf @1:13 PM    Low: 40ºf @6:13 AM     Approx. Precipitation / Rain Total: in.
Time (PST)Temp. (ºf)Humidity (%)Dew Point (ºf)Barometer (inHG)Wind Speed (mph)Wind DirectionWind Gust (mph)1hr. Precip / Rain Total (in.)Snow Depth
11:13 PM434724.16-13.9se16.51--
10:13 PM444825.59-14.77se19.12--
9:13 PM445026.57-13.03se17.38--
8:13 PM454323.86-13.03se19.12--
7:13 PM474627.31-12.17se16.51--
6:13 PM474627.31-9.56se14.77--
5:13 PM474727.83-10.43se17.38--
3:13 PM504931.6-10.43se24.33--
2:13 PM524430.77-15.64se25.2--
1:13 PM524832.92-13.9se26.07--
12:13 PM515836.75-13.9sse22.59--
11:13 AM486235.61-15.64sse21.72--
10:13 AM466836.04-16.51sse26.94--
9:13 AM457236.53-14.77sse20.86--
8:13 AM447536.59-14.77sse21.72--
7:13 AM418035.31-13.03se19.99--
6:13 AM407934.02-13.03se17.38--
5:13 AM408034.34-12.17se17.38--
4:13 AM408134.65-13.03se17.38--
3:13 AM407733.38-12.17se17.38--
1:13 AM407934.02-15.64sse19.99--
12:13 AM417634.02-15.64se19.99--
High: 48ºf @2:13 PM    Low: 38ºf @4:13 AM     Approx. Precipitation / Rain Total: in.
Time (PST)Temp. (ºf)Humidity (%)Dew Point (ºf)Barometer (inHG)Wind Speed (mph)Wind DirectionWind Gust (mph)1hr. Precip / Rain Total (in.)Snow Depth
11:13 PM417533.69-14.77sse19.99--
10:13 PM427133.29-16.51sse21.72--
9:13 PM446633.38-12.17se17.38--
8:13 PM437334.95---0.87--
7:13 PM429239.85------
6:13 PM4110041------
5:13 PM436532.05---9.56--
3:13 PM475632.13-13.03sse23.46--
2:13 PM485833.94-18.25sse29.55--
1:13 PM486235.61-20.86s29.55--
12:13 PM476736.62-20.86sse26.94--
11:13 AM457938.89-20.86sse28.68--
10:13 AM448238.86-19.12s26.07--
9:13 AM428939-17.38sse21.72--
8:13 AM409137.59-14.77sse19.12--
7:13 AM3910039-12.17sse17.38--
6:13 AM3810038-12.17sse16.51--
5:13 AM3810038-7.82sse12.17--
4:13 AM3810038-9.56se12.17--
3:13 AM3810038-6.95sse12.17--
1:13 AM409137.59------
12:13 AM409739.22---12.17--
High: 48ºf @1:13 PM    Low: 36ºf @2:13 AM     Approx. Precipitation / Rain Total: in.
Time (PST)Temp. (ºf)Humidity (%)Dew Point (ºf)Barometer (inHG)Wind Speed (mph)Wind DirectionWind Gust (mph)1hr. Precip / Rain Total (in.)Snow Depth
11:13 PM4010040-8.69sse13.03--
10:13 PM409839.48-7.82sse10.43--
9:13 PM418536.84-0.87sse9.56--
8:13 PM418837.72-6.95sse12.17--
7:13 PM429039.28-7.82sse11.3--
6:13 PM428537.82-8.69sse11.3--
5:13 PM438739.4-8.69s12.17--
4:13 PM448339.17-9.56s13.9--
3:13 PM466936.41-7.82s13.03--
2:13 PM486336.01-6.08s14.77--
1:13 PM486436.41-9.56s15.64--
12:13 PM486938.32-6.95s13.03--
11:13 AM477840.5-8.69s11.3--
10:13 AM458641.07-4.34s8.69--
9:13 AM448539.79---8.69--
8:13 AM409438.41-4.34sse10.43--
7:13 AM3710037-7.82se10.43--
6:13 AM379736.23---0.87--
5:13 AM379736.23---6.08--
4:13 AM3610036-2.61sse8.69--
3:13 AM3610036---7.82--
2:13 AM3610036-6.08sse8.69--
1:13 AM389536.7------
12:13 AM3810038------
High: 40ºf @12:13 AM    Low: 32ºf @7:13 AM     Approx. Precipitation / Rain Total: in.
Time (PST)Temp. (ºf)Humidity (%)Dew Point (ºf)Barometer (inHG)Wind Speed (mph)Wind DirectionWind Gust (mph)1hr. Precip / Rain Total (in.)Snow Depth
11:13 PM3710037------
10:13 PM3710037------
9:13 PM3710037------
7:13 PM389636.96-6.95w10.43--
6:13 PM3710037-6.08w11.3--
5:13 PM3610036---7.82--
4:13 PM3610036-0.87ssw6.95--
3:13 PM3610036------
2:13 PM3610036---6.08--
12:13 PM3610036------
11:13 AM3510035------
10:13 AM3510035---6.08--
9:13 AM3410034-0.87nw6.08--
8:13 AM3310033---5.21--
7:13 AM3210032-1.74n13.9--
6:13 AM3410034-9.56ne14.77--
5:13 AM3610036-0.87ne7.82--
4:13 AM3610036-0.87nne5.21--
3:13 AM3610036-3.48nne12.17--
2:13 AM3810038-4.34nne8.69--
1:13 AM399938.74------
12:13 AM409338.14---6.08--
High: 67ºf @10:13 AM    Low: 41ºf @11:13 PM     Approx. Precipitation / Rain Total: in.
Time (PST)Temp. (ºf)Humidity (%)Dew Point (ºf)Barometer (inHG)Wind Speed (mph)Wind DirectionWind Gust (mph)1hr. Precip / Rain Total (in.)Snow Depth
11:13 PM419439.41---11.3--
9:13 PM468541.75-7.82n11.3--
8:13 PM486737.57---4.34--
7:13 PM496638.14-0.87nnw6.08--
6:13 PM506237.5------
4:13 PM525636.79-0.87n8.69--
3:13 PM554534.05-5.21n11.3--
2:13 PM592321.26-4.34n10.43--
1:13 PM612221.89-6.95nnw11.3--
12:13 PM621818.02-5.21nne10.43--
11:13 AM651516.24---7.82--
10:13 AM671416.24---0.87--
8:13 AM6380.79---0.87--
7:13 AM60139.04---13.9--
6:13 AM601512.24-0.87sse1.74--
5:13 AM601715.08------
4:13 AM591714.26------
3:13 AM611614.5------
2:13 AM631514.64------
1:13 AM641413.86------
12:13 AM631514.64------
High: 73ºf @1:13 PM    Low: 60ºf @1:13 AM     Approx. Precipitation / Rain Total: in.
Time (PST)Temp. (ºf)Humidity (%)Dew Point (ºf)Barometer (inHG)Wind Speed (mph)Wind DirectionWind Gust (mph)1hr. Precip / Rain Total (in.)Snow Depth
10:13 PM621513.84------
9:13 PM641515.44---13.03--
8:13 PM651312.97-6.95se14.77--
7:13 PM631514.64-11.3sse13.9--
6:13 PM611614.5------
5:13 PM631413.07------
4:13 PM661313.76------
3:13 PM691316.12---5.21--
2:13 PM731217.4-5.21s14.77--
1:13 PM731115.4-12.17s20.86--
12:13 PM731013.23-13.9sse20.86--
10:13 AM701113.09-13.9sse19.12--
9:13 AM681213.51-13.03sse16.51--
8:13 AM661211.95-13.03sse17.38--
7:13 AM621310.61-13.03se16.51--
6:13 AM61139.82-0.87se1.74--
5:13 AM611411.48---13.03--
4:13 AM601410.69-11.3se17.38--
2:13 AM601512.24-14.77se19.12--
1:13 AM601410.69-13.9se18.25--
12:13 AM601410.69-14.77sse18.25--
High: 69ºf @1:13 PM    Low: 60ºf @7:13 AM     Approx. Precipitation / Rain Total: in.
Time (PST)Temp. (ºf)Humidity (%)Dew Point (ºf)Barometer (inHG)Wind Speed (mph)Wind DirectionWind Gust (mph)1hr. Precip / Rain Total (in.)Snow Depth
11:13 PM611411.48-12.17sse17.38--
10:13 PM611614.5-11.3se14.77--
9:13 PM611715.89---1.74--
8:13 PM611715.89---11.3--
7:13 PM611715.89---7.82--
6:13 PM611715.89---12.17--
5:13 PM611715.89-8.69s13.9--
4:13 PM651516.24-12.17sse19.12--
3:13 PM671416.24-11.3sse19.12--
2:13 PM681417.04-14.77sse23.46--
1:13 PM691417.83-14.77s22.59--
12:13 PM671416.24-15.64s21.72--
11:13 AM661517.04-15.64sse22.59--
10:13 AM651617.73-16.51sse23.46--
8:13 AM621716.7-15.64sse22.59--
7:13 AM601816.39-15.64se20.86--
5:13 AM601816.39-12.17se17.38--
4:13 AM601917.63-11.3se13.9--
3:13 AM601917.63-4.34se13.03--
1:13 AM602119.96-9.56se14.77--
12:13 AM612120.79-1.74se12.17--
High: 67ºf @11:13 AM    Low: 40ºf @4:13 AM     Approx. Precipitation / Rain Total: in.
Time (PST)Temp. (ºf)Humidity (%)Dew Point (ºf)Barometer (inHG)Wind Speed (mph)Wind DirectionWind Gust (mph)1hr. Precip / Rain Total (in.)Snow Depth
11:13 PM602119.96------
10:13 PM612120.79---7.82--
9:13 PM612322.94-0.87se4.34--
8:13 PM572925.07------
7:13 PM592321.26------
6:13 PM582421.42------
5:13 PM572925.07------
4:13 PM602826.81------
3:13 PM652225.23------
2:13 PM662932.83---9.56--
1:13 PM662226.07-7.82sse12.17--
12:13 PM652225.23-0.87sse14.77--
11:13 AM672024.61-10.43s15.64--
10:13 AM642224.4-9.56s13.03--
9:13 AM622323.78---9.56--
8:13 AM612625.87-0.87sse2.61--
7:13 AM582925.93---0.87--
6:13 AM563125.8-1.74se6.95--
5:13 AM496236.55------
4:13 AM4010040------
3:13 AM533526.09------
2:13 AM553427.15---11.3--
1:13 AM553628.54------
12:13 AM535336.33---9.56--
High: 57ºf @1:13 PM    Low: 42ºf @6:13 PM     Approx. Precipitation / Rain Total: in.
Time (PST)Temp. (ºf)Humidity (%)Dew Point (ºf)Barometer (inHG)Wind Speed (mph)Wind DirectionWind Gust (mph)1hr. Precip / Rain Total (in.)Snow Depth
11:13 PM476836.99-7.82nw10.43--
10:13 PM475330.77---7.82--
8:13 PM496336.96---0.87--
7:13 PM4210042---3.48--
6:13 PM4210042------
5:13 PM439842.47---6.08--
4:13 PM497742.11---9.56--
3:13 PM534833.84------
2:13 PM563830.76------
1:13 PM576846.54------
12:13 PM566745.2------
11:13 AM547646.61------
10:13 AM4910049------
8:13 AM4310043------
7:13 AM437736.29------
5:13 AM524330.2------
3:13 AM505333.55------
2:13 AM533425.39------
1:13 AM495332.62------
12:13 AM505534.48------
High: 70ºf @12:13 PM    Low: 48ºf @9:13 PM     Approx. Precipitation / Rain Total: in.
Time (PST)Temp. (ºf)Humidity (%)Dew Point (ºf)Barometer (inHG)Wind Speed (mph)Wind DirectionWind Gust (mph)1hr. Precip / Rain Total (in.)Snow Depth
10:13 PM506739.48------
9:13 PM486837.95------
8:13 PM505735.37------
7:13 PM543426.27------
6:13 PM563025.01------
5:13 PM582421.42------
4:13 PM602322.1------
2:13 PM672327.98------
12:13 PM702229.4---2.61--
11:13 AM701925.84---12.17--
10:13 AM681822.92-1.74s7.82--
8:13 AM641920.92------
6:13 AM592119.13------
5:13 AM592119.13------
4:13 AM592119.13------
3:13 AM602018.82------
2:13 AM602018.82------
1:13 AM602018.82------
12:13 AM602018.82------
High: 74ºf @11:13 AM    Low: 60ºf @6:13 AM     Approx. Precipitation / Rain Total: in.
Time (PST)Temp. (ºf)Humidity (%)Dew Point (ºf)Barometer (inHG)Wind Speed (mph)Wind DirectionWind Gust (mph)1hr. Precip / Rain Total (in.)Snow Depth
11:13 PM602018.82------
10:13 PM602018.82------
9:13 PM601917.63------
8:13 PM611817.2------
7:13 PM621818.02------
6:13 PM621716.7------
5:13 PM631514.64------
4:13 PM651617.73------
3:13 PM671720.76------
2:13 PM691519.43---4.34--
1:13 PM701520.23-0.87nne6.95--
12:13 PM711419.41-0.87nne6.95--
11:13 AM741320.04------
10:13 AM701621.75-0.87nnw0.87--
9:13 AM671822.1-0.87n1.74--
8:13 AM661719.95---2.61--
7:13 AM621818.02-0.87nnw3.48--
6:13 AM601715.08------
5:13 AM601816.39------
4:13 AM601816.39------
2:13 AM611715.89------
12:13 AM611715.89------
High: 62ºf @7:13 PM    Low: 61ºf @11:13 PM     Approx. Precipitation / Rain Total: in.
Time (PST)Temp. (ºf)Humidity (%)Dew Point (ºf)Barometer (inHG)Wind Speed (mph)Wind DirectionWind Gust (mph)1hr. Precip / Rain Total (in.)Snow Depth
11:13 PM611715.89------
10:13 PM621716.7---0.87--
9:13 PM621716.7------
8:13 PM621716.7------
7:13 PM622020.48------
6:13 PM621919.28------
Past Weather Disclaimer Note regarding "Approx. Precipitation / Rain Total"

Currently

Fog 48°F
30.17in
Barometer
96%
Humidity
South 8.1mph
Wind
Fog

Past Weather Nearby

More Local Information

Bookmark and Share

Go Ad Free - Become a Member